Time;durP1;ratioP1;P1;durP2;ratioP2;P2;SDS_P1;SDS_P2;PMS_P1;PMS_P2;Temp;Humidity;BMP_temperature;BMP_pressure;BME280_temperature;BME280_humidity;BME280_pressure;Samples;Min_cycle;Max_cycle;Signal;HPM_P1;HPM_P2
2022/04/17 00:00:46;;;;;;;8.57;4.80;;;6.30;72.60;;;;;;5067366;28;20481;-72
2022/04/17 00:03:13;;;;;;;4.70;3.80;;;6.30;72.40;;;;;;5071051;28;20478;-72
2022/04/17 00:05:41;;;;;;;8.73;4.37;;;6.30;71.80;;;;;;5072138;28;20999;-73
2022/04/17 00:08:10;;;;;;;5.93;4.20;;;6.40;72.60;;;;;;5070121;28;20477;-72
2022/04/17 00:10:37;;;;;;;5.90;4.23;;;6.40;72.30;;;;;;5069037;28;20671;-72
2022/04/17 00:13:04;;;;;;;5.40;4.27;;;6.30;71.80;;;;;;5071450;28;20934;-73
2022/04/17 00:15:31;;;;;;;4.00;3.60;;;6.30;72.30;;;;;;5066479;28;21205;-73
2022/04/17 00:17:59;;;;;;;4.83;3.53;;;6.30;72.20;;;;;;5073595;28;20487;-72
2022/04/17 00:20:27;;;;;;;5.20;3.73;;;6.20;72.10;;;;;;5060132;28;20473;-72
2022/04/17 00:22:56;;;;;;;4.40;4.00;;;6.20;71.90;;;;;;5070733;28;21197;-72
2022/04/17 00:25:23;;;;;;;4.07;3.70;;;6.20;71.40;;;;;;5072836;28;20494;-72
2022/04/17 00:27:50;;;;;;;5.13;4.00;;;6.20;71.40;;;;;;5073878;28;20461;-72
2022/04/17 00:30:17;;;;;;;4.80;3.90;;;6.20;70.90;;;;;;5068522;28;20486;-72
2022/04/17 00:32:44;;;;;;;3.60;3.30;;;6.30;69.90;;;;;;5070729;28;20484;-72
2022/04/17 00:35:11;;;;;;;4.47;4.07;;;6.30;69.30;;;;;;5070815;28;20492;-70
2022/04/17 00:37:38;;;;;;;4.43;3.87;;;6.40;69.00;;;;;;5074843;28;20493;-71
2022/04/17 00:40:08;;;;;;;4.77;3.73;;;6.50;69.00;;;;;;5069587;28;20953;-72
2022/04/17 00:42:35;;;;;;;3.93;3.63;;;6.60;68.90;;;;;;5071376;28;20475;-72
2022/04/17 00:45:02;;;;;;;5.20;3.80;;;6.70;68.90;;;;;;5072271;28;20562;-71
2022/04/17 00:47:29;;;;;;;3.90;3.50;;;6.70;68.20;;;;;;5067777;28;20471;-72
2022/04/17 00:49:56;;;;;;;5.40;4.03;;;6.70;68.40;;;;;;5068400;28;20478;-72
2022/04/17 00:52:23;;;;;;;4.10;3.80;;;6.80;69.00;;;;;;5067382;28;20479;-71
2022/04/17 00:54:52;;;;;;;5.10;3.50;;;6.80;69.20;;;;;;5071457;28;20528;-73
2022/04/17 00:57:20;;;;;;;6.93;4.20;;;6.80;68.60;;;;;;5068369;28;20519;-74
2022/04/17 00:59:48;;;;;;;5.23;3.83;;;6.80;69.50;;;;;;5066422;28;20479;-73
2022/04/17 01:02:15;;;;;;;7.10;3.60;;;6.80;69.80;;;;;;5059974;28;21088;-72
2022/04/17 01:04:43;;;;;;;3.87;3.57;;;6.70;69.40;;;;;;5077778;28;20481;-71
2022/04/17 01:07:11;;;;;;;4.47;3.80;;;6.70;69.30;;;;;;5068765;28;20501;-72
2022/04/17 01:09:39;;;;;;;4.27;3.50;;;6.70;69.90;;;;;;5070082;28;20483;-70
2022/04/17 01:12:09;;;;;;;3.70;3.40;;;6.70;70.10;;;;;;5067639;28;20486;-74
2022/04/17 01:14:39;;;;;;;4.13;3.50;;;6.60;69.60;;;;;;5070138;28;20990;-74
2022/04/17 01:17:06;;;;;;;3.83;3.53;;;6.60;69.50;;;;;;5061068;28;20472;-72
2022/04/17 01:19:37;;;;;;;4.40;3.87;;;6.60;69.30;;;;;;5070422;28;20484;-69
2022/04/17 01:22:07;;;;;;;5.20;4.17;;;6.50;69.30;;;;;;5067870;28;20594;-70
2022/04/17 01:27:20;;;;;;;5.30;3.60;;;6.50;69.80;;;;;;5066608;28;20505;-73
2022/04/17 01:29:50;;;;;;;7.67;4.07;;;6.50;70.10;;;;;;5066846;28;20569;-72
2022/04/17 01:32:17;;;;;;;4.47;3.93;;;6.50;70.30;;;;;;5069777;28;20492;-72
2022/04/17 01:34:44;;;;;;;4.90;4.20;;;6.50;70.50;;;;;;5066551;28;20481;-72
2022/04/17 01:37:14;;;;;;;4.03;3.73;;;6.50;70.90;;;;;;5065200;28;20475;-73
2022/04/17 01:39:42;;;;;;;4.70;4.27;;;6.40;71.30;;;;;;5066212;28;21041;-72
2022/04/17 01:42:09;;;;;;;5.37;4.20;;;6.40;71.70;;;;;;5066741;28;20989;-72
2022/04/17 01:44:36;;;;;;;4.70;4.30;;;6.40;71.50;;;;;;5068043;28;20776;-72
2022/04/17 01:47:04;;;;;;;4.40;4.00;;;6.30;71.30;;;;;;5070753;28;20961;-71
2022/04/17 01:49:30;;;;;;;3.73;3.40;;;6.20;71.10;;;;;;5069042;28;20477;-73
2022/04/17 01:51:58;;;;;;;4.07;3.60;;;6.20;71.00;;;;;;5063113;28;20477;-72
2022/04/17 01:54:27;;;;;;;4.60;3.87;;;6.20;71.50;;;;;;5068599;28;20481;-73
2022/04/17 01:56:55;;;;;;;5.30;4.37;;;6.20;71.20;;;;;;5065371;28;20813;-72
2022/04/17 01:59:24;;;;;;;5.70;4.23;;;6.20;70.90;;;;;;5065797;28;21063;-72
2022/04/17 02:01:52;;;;;;;4.03;3.73;;;6.20;71.00;;;;;;5066026;28;20560;-73
2022/04/17 02:04:19;;;;;;;4.97;4.50;;;6.30;71.20;;;;;;5065700;28;20824;-74
2022/04/17 02:06:46;;;;;;;7.63;4.20;;;6.30;71.20;;;;;;5067396;28;20673;-74
2022/04/17 02:09:16;;;;;;;8.23;4.63;;;6.30;71.20;;;;;;5068268;28;21022;-71
2022/04/17 02:11:45;;;;;;;8.60;4.80;;;6.30;71.10;;;;;;5061700;28;20493;-71
2022/04/17 02:14:14;;;;;;;4.33;3.93;;;6.30;71.00;;;;;;5065865;28;20542;-71
2022/04/17 02:16:41;;;;;;;5.70;4.20;;;6.40;71.20;;;;;;5067840;28;21366;-70
2022/04/17 02:19:09;;;;;;;4.70;4.00;;;6.40;71.10;;;;;;5072888;28;20503;-72
2022/04/17 02:21:36;;;;;;;3.97;3.63;;;6.40;71.30;;;;;;5063227;28;20477;-74
2022/04/17 02:24:03;;;;;;;3.77;3.50;;;6.30;71.50;;;;;;5066125;28;20880;-72
2022/04/17 02:26:32;;;;;;;4.03;3.67;;;6.30;71.70;;;;;;5066977;28;21030;-73
2022/04/17 02:29:01;;;;;;;4.37;3.97;;;6.30;71.80;;;;;;5066664;28;20967;-73
2022/04/17 02:31:28;;;;;;;4.60;4.20;;;6.30;71.90;;;;;;5061400;28;20479;-72
2022/04/17 02:33:56;;;;;;;6.93;4.20;;;6.20;71.70;;;;;;5067579;28;20476;-72
2022/04/17 02:36:23;;;;;;;4.53;4.13;;;6.20;71.70;;;;;;5067318;28;20755;-73
2022/04/17 02:38:50;;;;;;;9.00;4.10;;;6.20;71.70;;;;;;5068610;28;20501;-74
2022/04/17 02:41:16;;;;;;;6.77;4.43;;;6.20;71.90;;;;;;5068588;28;20933;-73
2022/04/17 02:43:44;;;;;;;4.13;3.80;;;6.10;72.10;;;;;;5067800;28;20491;-74
2022/04/17 02:46:12;;;;;;;5.53;4.77;;;6.10;72.10;;;;;;5063332;28;20872;-72
2022/04/17 02:48:38;;;;;;;4.60;4.20;;;6.10;72.80;;;;;;5066700;28;20564;-71
2022/04/17 02:51:06;;;;;;;4.60;4.20;;;6.00;72.60;;;;;;5064114;28;20487;-73
2022/04/17 02:53:33;;;;;;;5.17;4.43;;;5.90;73.00;;;;;;5064329;28;20710;-72
2022/04/17 02:56:00;;;;;;;7.00;4.17;;;6.10;73.10;;;;;;5063484;28;20999;-73
2022/04/17 02:58:27;;;;;;;7.63;4.70;;;5.90;73.00;;;;;;5067082;28;20571;-73
2022/04/17 03:06:32;;;;;;;6.10;4.00;;;5.90;72.60;;;;;;5027492;28;20993;-70
2022/04/17 03:08:59;;;;;;;7.20;4.10;;;5.90;72.90;;;;;;5065293;28;20533;-72
2022/04/17 03:11:26;;;;;;;14.63;5.03;;;5.90;73.10;;;;;;5068084;28;20561;-72
2022/04/17 03:13:52;;;;;;;4.70;4.20;;;5.90;72.80;;;;;;5073555;28;21012;-72
2022/04/17 03:16:19;;;;;;;4.57;4.13;;;5.90;73.00;;;;;;5071960;28;20561;-73
2022/04/17 03:18:47;;;;;;;5.10;4.20;;;5.90;73.00;;;;;;5071976;28;20484;-72
2022/04/17 03:21:14;;;;;;;6.00;4.70;;;5.90;72.90;;;;;;5067824;28;20485;-72
2022/04/17 03:23:41;;;;;;;5.43;4.30;;;5.90;73.00;;;;;;5071929;28;20488;-73
2022/04/17 03:26:08;;;;;;;5.47;4.90;;;5.90;73.20;;;;;;5071605;28;20987;-72
2022/04/17 03:28:35;;;;;;;4.83;3.73;;;5.90;73.40;;;;;;5066633;28;20477;-74
2022/04/17 03:31:01;;;;;;;4.90;4.20;;;5.80;73.30;;;;;;5067663;28;20473;-73
2022/04/17 03:33:28;;;;;;;6.57;4.57;;;5.80;73.40;;;;;;5069432;28;20900;-73
2022/04/17 03:35:58;;;;;;;5.00;4.60;;;5.80;73.30;;;;;;5073345;28;20595;-72
2022/04/17 03:38:25;;;;;;;5.30;4.80;;;5.80;73.40;;;;;;5072317;28;20908;-71
2022/04/17 03:40:52;;;;;;;5.03;4.53;;;5.90;73.40;;;;;;5065064;28;21033;-73
2022/04/17 03:43:22;;;;;;;5.03;4.40;;;5.90;74.00;;;;;;5068229;28;20826;-73
2022/04/17 03:45:49;;;;;;;5.03;4.03;;;5.90;74.80;;;;;;5068715;28;20600;-73
2022/04/17 03:48:17;;;;;;;4.37;3.97;;;5.90;74.00;;;;;;5071558;28;20733;-73
2022/04/17 03:50:43;;;;;;;4.87;4.37;;;5.80;74.20;;;;;;5068695;28;20494;-72
2022/04/17 03:53:11;;;;;;;6.80;4.73;;;5.70;74.20;;;;;;5064521;28;20480;-73
2022/04/17 03:55:38;;;;;;;4.40;4.00;;;5.70;74.80;;;;;;5069930;28;20750;-73
2022/04/17 03:58:05;;;;;;;4.77;4.33;;;5.60;74.50;;;;;;5071255;28;20502;-73
2022/04/17 04:00:32;;;;;;;5.10;4.50;;;5.50;74.40;;;;;;5064392;28;20480;-72
2022/04/17 04:02:59;;;;;;;7.47;4.80;;;5.40;74.60;;;;;;5070453;28;20481;-72
2022/04/17 04:05:26;;;;;;;10.50;5.47;;;5.30;74.60;;;;;;5062459;28;20480;-73
2022/04/17 04:07:53;;;;;;;5.90;5.20;;;5.20;75.00;;;;;;5067052;28;20483;-72
2022/04/17 04:10:21;;;;;;;4.70;4.30;;;5.10;75.60;;;;;;5061410;28;20479;-72
2022/04/17 04:12:49;;;;;;;5.20;4.70;;;5.00;75.70;;;;;;5064880;28;20500;-72
2022/04/17 04:15:16;;;;;;;6.07;5.03;;;4.90;75.60;;;;;;5077951;28;20896;-72
2022/04/17 04:17:43;;;;;;;5.00;4.10;;;4.80;75.70;;;;;;5069410;28;20487;-74
2022/04/17 04:20:11;;;;;;;5.63;4.00;;;4.70;76.20;;;;;;5061636;28;20479;-73
2022/04/17 04:22:38;;;;;;;4.80;4.40;;;4.50;76.40;;;;;;5064892;28;20491;-72
2022/04/17 04:25:07;;;;;;;6.03;4.83;;;4.50;76.70;;;;;;5068115;28;20484;-73
2022/04/17 04:30:22;;;;;;;7.07;4.90;;;4.50;77.00;;;;;;5054334;28;20862;-73
2022/04/17 04:32:53;;;;;;;5.87;4.23;;;4.50;76.90;;;;;;5069709;28;20474;-72
2022/04/17 04:35:20;;;;;;;7.00;4.60;;;4.40;77.10;;;;;;5068161;28;21043;-73
2022/04/17 04:37:47;;;;;;;5.13;4.20;;;4.40;77.40;;;;;;5072425;28;20480;-74
2022/04/17 04:40:15;;;;;;;5.33;4.80;;;4.40;77.70;;;;;;5053118;28;20478;-73
2022/04/17 04:42:45;;;;;;;5.37;4.27;;;4.40;77.80;;;;;;5071735;28;20542;-75
2022/04/17 04:47:56;;;;;;;4.27;3.90;;;4.50;77.40;;;;;;5058521;28;20507;-73
2022/04/17 04:50:22;;;;;;;5.13;4.63;;;4.50;77.60;;;;;;5066604;28;20476;-73
2022/04/17 04:52:49;;;;;;;5.90;4.17;;;4.50;77.40;;;;;;5071209;28;20472;-71
2022/04/17 04:55:16;;;;;;;5.67;4.70;;;4.50;77.30;;;;;;5069312;28;21017;-73
2022/04/17 04:57:43;;;;;;;5.90;5.07;;;4.50;77.20;;;;;;5069587;28;20487;-73
2022/04/17 05:00:13;;;;;;;5.80;5.00;;;4.50;77.50;;;;;;5066133;28;20598;-73
2022/04/17 05:02:41;;;;;;;5.87;5.20;;;4.50;77.70;;;;;;5069571;28;20882;-71
2022/04/17 05:05:10;;;;;;;6.70;5.07;;;4.50;77.50;;;;;;5059965;28;20585;-74
2022/04/17 05:07:36;;;;;;;5.23;4.10;;;4.50;77.40;;;;;;5076628;28;21015;-73
2022/04/17 05:10:03;;;;;;;6.63;4.23;;;4.50;77.30;;;;;;5067906;28;20598;-74
2022/04/17 05:12:30;;;;;;;6.07;5.10;;;4.50;77.50;;;;;;5066433;28;20488;-73
2022/04/17 05:15:00;;;;;;;5.40;4.90;;;4.50;77.80;;;;;;5071388;27;20895;-74
2022/04/17 05:17:28;;;;;;;6.07;5.17;;;4.50;77.90;;;;;;5068891;28;20488;-73
2022/04/17 05:19:56;;;;;;;5.20;4.50;;;4.50;77.80;;;;;;5055946;28;20486;-73
2022/04/17 05:22:31;;;;;;;4.20;3.80;;;4.60;77.70;;;;;;5059709;28;20518;-74
2022/04/17 05:24:58;;;;;;;9.23;4.03;;;4.60;77.50;;;;;;5069256;28;20550;-73
2022/04/17 05:27:24;;;;;;;7.97;4.53;;;4.60;77.60;;;;;;5068185;28;20476;-74
2022/04/17 05:29:51;;;;;;;5.43;4.93;;;4.70;77.50;;;;;;5065804;28;20485;-73
2022/04/17 05:32:19;;;;;;;20.53;11.30;;;4.70;77.60;;;;;;5055953;28;20502;-73
2022/04/17 05:34:47;;;;;;;28.77;15.50;;;4.80;77.70;;;;;;5068371;28;20889;-75
2022/04/17 05:37:13;;;;;;;17.27;10.60;;;4.90;77.70;;;;;;5068574;28;20478;-74
2022/04/17 05:39:40;;;;;;;6.67;5.60;;;5.00;77.80;;;;;;5062515;28;20481;-74
2022/04/17 05:42:07;;;;;;;9.47;6.63;;;5.10;77.70;;;;;;5068388;28;20795;-74
2022/04/17 05:44:37;;;;;;;5.90;5.40;;;5.20;77.70;;;;;;5060916;28;20481;-73
2022/04/17 05:47:04;;;;;;;6.40;4.77;;;5.30;77.70;;;;;;5068323;28;20476;-73
2022/04/17 05:49:31;;;;;;;6.87;5.10;;;5.50;77.50;;;;;;5068794;28;20465;-74
2022/04/17 05:52:00;;;;;;;7.33;5.47;;;5.60;77.50;;;;;;5064673;28;20637;-74
2022/04/17 05:54:27;;;;;;;6.67;4.27;;;5.70;77.40;;;;;;5078367;28;20488;-74
2022/04/17 05:56:54;;;;;;;5.93;4.73;;;5.90;77.10;;;;;;5066491;28;20958;-73
2022/04/17 05:59:23;;;;;;;5.90;5.30;;;6.20;77.00;;;;;;5068516;28;20502;-73
2022/04/17 06:01:50;;;;;;;7.60;5.30;;;6.40;76.20;;;;;;5055025;28;20563;-73
2022/04/17 06:04:16;;;;;;;7.93;5.83;;;6.80;75.80;;;;;;5062409;28;20496;-74
2022/04/17 06:06:43;;;;;;;4.73;4.33;;;7.20;75.50;;;;;;5066684;28;20489;-73
2022/04/17 06:09:15;;;;;;;24.17;4.57;;;7.50;74.60;;;;;;5066306;28;20496;-74
2022/04/17 06:11:49;;;;;;;8.93;5.17;;;7.90;74.30;;;;;;5063985;28;20955;-73
2022/04/17 06:14:15;;;;;;;6.20;5.03;;;8.40;73.60;;;;;;5069278;28;20489;-73
2022/04/17 06:16:42;;;;;;;7.67;4.20;;;8.80;72.00;;;;;;5065339;28;20491;-74
2022/04/17 06:19:10;;;;;;;7.03;4.63;;;9.30;71.60;;;;;;5066069;28;20789;-77
2022/04/17 06:21:38;;;;;;;5.53;4.30;;;9.70;71.00;;;;;;5061082;28;20511;-73
2022/04/17 06:24:13;;;;;;;14.10;7.07;;;10.10;68.50;;;;;;5048113;28;20497;-73
2022/04/17 06:26:42;;;;;;;4.80;4.30;;;10.50;67.10;;;;;;5068183;28;20478;-72
2022/04/17 06:29:08;;;;;;;6.03;4.77;;;10.80;66.70;;;;;;5070686;28;20473;-76
2022/04/17 06:31:43;;;;;;;5.17;4.50;;;11.00;66.00;;;;;;5062939;28;20978;-76
2022/04/17 06:34:09;;;;;;;7.43;4.63;;;11.40;66.60;;;;;;5063893;28;20893;-76
2022/04/17 06:36:36;;;;;;;6.07;4.70;;;11.90;65.90;;;;;;5079275;28;20503;-79
2022/04/17 06:39:03;;;;;;;5.93;4.47;;;12.20;63.60;;;;;;5065502;28;20512;-75
2022/04/17 06:41:31;;;;;;;4.33;4.03;;;12.40;63.30;;;;;;5056427;28;20847;-75
2022/04/17 06:43:58;;;;;;;8.20;4.30;;;12.70;61.90;;;;;;5066617;28;20476;-74
2022/04/17 06:46:25;;;;;;;4.43;4.03;;;13.00;60.90;;;;;;5065959;28;20502;-75
2022/04/17 06:48:52;;;;;;;4.80;4.27;;;13.60;61.20;;;;;;5073281;28;20656;-74
2022/04/17 06:51:23;;;;;;;4.33;3.93;;;13.90;58.40;;;;;;5061375;28;20488;-76
2022/04/17 06:53:51;;;;;;;4.00;3.60;;;14.30;58.90;;;;;;5072212;28;20475;-78
2022/04/17 06:56:18;;;;;;;4.60;4.10;;;14.60;58.50;;;;;;5071485;28;20484;-74
2022/04/17 06:58:46;;;;;;;7.30;3.70;;;14.70;57.00;;;;;;5052865;28;21053;-82
2022/04/17 07:01:15;;;;;;;6.73;4.30;;;14.90;56.80;;;;;;5074916;28;20484;-76
2022/04/17 07:03:42;;;;;;;6.50;4.00;;;14.70;55.60;;;;;;5072242;28;20611;-76
2022/04/17 07:06:09;;;;;;;4.67;4.27;;;14.50;55.70;;;;;;5068695;28;20470;-79
2022/04/17 07:08:36;;;;;;;6.33;4.13;;;14.30;55.80;;;;;;5063317;28;20492;-75
2022/04/17 07:11:04;;;;;;;5.13;3.27;;;13.90;55.40;;;;;;5065677;28;20895;-81
2022/04/17 07:13:34;;;;;;;2.60;2.23;;;13.90;55.80;;;;;;5057452;28;20505;-80
2022/04/17 07:16:02;;;;;;;3.73;3.33;;;13.40;55.70;;;;;;5063901;28;20478;-77
2022/04/17 07:18:29;;;;;;;5.37;4.00;;;13.30;56.60;;;;;;5045258;28;20487;-79
2022/04/17 07:20:56;;;;;;;3.60;3.30;;;13.40;57.40;;;;;;5066535;28;20494;-79
2022/04/17 07:23:22;;;;;;;4.43;3.50;;;13.50;57.70;;;;;;5060243;28;20480;-78
2022/04/17 07:25:50;;;;;;;7.63;3.90;;;13.60;57.30;;;;;;5059892;28;20825;-79
2022/04/17 07:28:17;;;;;;;3.10;2.80;;;13.70;57.30;;;;;;5072399;28;20682;-80
2022/04/17 07:30:44;;;;;;;4.50;4.10;;;13.60;56.00;;;;;;5054063;28;20486;-80
2022/04/17 07:33:12;;;;;;;3.23;2.90;;;13.60;55.80;;;;;;5065777;28;21089;-78
2022/04/17 07:35:39;;;;;;;5.33;3.23;;;13.40;55.60;;;;;;5071724;28;20482;-82
2022/04/17 07:38:06;;;;;;;4.10;3.70;;;12.90;54.70;;;;;;5073358;28;20916;-79
2022/04/17 07:40:35;;;;;;;3.20;2.90;;;13.00;57.20;;;;;;5069375;28;20993;-77
2022/04/17 07:43:03;;;;;;;4.90;3.13;;;13.20;55.90;;;;;;5072116;28;20477;-79
2022/04/17 07:45:31;;;;;;;6.30;3.30;;;13.30;55.40;;;;;;5069729;28;20895;-80
2022/04/17 07:47:59;;;;;;;3.20;2.90;;;13.10;55.50;;;;;;5069008;28;20483;-79
2022/04/17 07:50:29;;;;;;;5.23;2.97;;;13.20;55.90;;;;;;5055418;28;20669;-81
2022/04/17 07:52:57;;;;;;;3.97;3.57;;;13.40;55.90;;;;;;5074067;28;21181;-76
2022/04/17 07:55:23;;;;;;;4.07;3.67;;;13.50;56.20;;;;;;5072297;28;20993;-80
2022/04/17 07:58:01;;;;;;;2.67;2.47;;;13.60;55.80;;;;;;5072219;28;20487;-74
2022/04/17 08:00:31;;;;;;;5.70;3.10;;;13.80;55.40;;;;;;5061571;28;20485;-77
2022/04/17 08:03:07;;;;;;;3.80;3.50;;;14.00;55.30;;;;;;5068490;28;20488;-76
2022/04/17 08:05:37;;;;;;;3.20;2.90;;;14.20;55.20;;;;;;5071061;28;20473;-76
2022/04/17 08:08:04;;;;;;;3.57;3.27;;;14.50;56.30;;;;;;5062258;28;20477;-80
2022/04/17 08:10:31;;;;;;;3.37;2.93;;;14.80;54.80;;;;;;5063530;28;21006;-78
2022/04/17 08:12:58;;;;;;;9.50;5.07;;;14.80;55.90;;;;;;5073007;28;20878;-83
2022/04/17 08:15:24;;;;;;;4.57;4.17;;;14.90;53.70;;;;;;5062045;28;20483;-77
2022/04/17 08:17:51;;;;;;;3.47;2.97;;;15.10;54.70;;;;;;5071829;28;21013;-83
2022/04/17 08:20:19;;;;;;;3.40;3.10;;;15.10;53.30;;;;;;5063508;28;20480;-79
2022/04/17 08:22:48;;;;;;;7.80;4.33;;;15.10;54.70;;;;;;5065758;28;20479;-75
2022/04/17 08:25:15;;;;;;;4.10;2.63;;;15.00;52.90;;;;;;5066547;28;20829;-82
2022/04/17 08:27:47;;;;;;;2.23;1.77;;;15.10;53.70;;;;;;5080535;28;20477;-79
2022/04/17 08:30:15;;;;;;;3.13;2.57;;;15.10;52.90;;;;;;5057507;28;20469;-75
2022/04/17 08:32:41;;;;;;;2.33;2.03;;;15.20;53.70;;;;;;5064636;28;20489;-79
2022/04/17 08:35:09;;;;;;;4.30;2.93;;;15.20;52.50;;;;;;5065760;28;20495;-76
2022/04/17 08:37:36;;;;;;;3.13;2.30;;;15.20;51.80;;;;;;5049614;28;20485;-74
2022/04/17 08:40:05;;;;;;;2.77;2.47;;;15.30;53.80;;;;;;5060184;28;20599;-75
2022/04/17 08:42:32;;;;;;;3.57;2.40;;;15.40;52.00;;;;;;5071530;28;20490;-78
2022/04/17 08:45:00;;;;;;;3.03;2.73;;;15.50;52.30;;;;;;5067242;28;20492;-77
2022/04/17 08:47:27;;;;;;;5.10;2.97;;;15.60;52.90;;;;;;5064874;28;20488;-78
2022/04/17 08:49:55;;;;;;;3.33;2.50;;;15.70;52.30;;;;;;5065057;28;20949;-80
2022/04/17 08:52:23;;;;;;;3.13;2.93;;;15.80;52.50;;;;;;5065203;28;20584;-80
2022/04/17 08:54:53;;;;;;;2.90;2.40;;;15.90;51.90;;;;;;5074317;28;20480;-79
2022/04/17 08:57:22;;;;;;;6.67;3.80;;;16.00;53.00;;;;;;5062744;28;20689;-78
2022/04/17 08:59:50;;;;;;;3.23;2.93;;;16.00;52.10;;;;;;5067054;28;21125;-80
2022/04/17 09:02:18;;;;;;;3.57;2.43;;;16.10;51.80;;;;;;5071715;28;20473;-76
2022/04/17 09:04:46;;;;;;;4.50;3.97;;;16.20;53.20;;;;;;5069157;28;20582;-80
2022/04/17 09:07:14;;;;;;;4.47;3.50;;;16.40;52.80;;;;;;5067480;28;20478;-75
2022/04/17 09:09:49;;;;;;;3.10;2.80;;;16.40;50.60;;;;;;5067618;28;20494;-78
2022/04/17 09:12:18;;;;;;;2.60;2.40;;;16.70;54.90;;;;;;5066248;28;20476;-76
2022/04/17 09:14:47;;;;;;;4.43;2.63;;;17.00;54.20;;;;;;5069130;28;20474;-79
2022/04/17 09:17:13;;;;;;;3.07;2.77;;;16.90;50.20;;;;;;5070573;28;21161;-76
2022/04/17 09:19:41;;;;;;;5.00;2.80;;;16.20;47.80;;;;;;5065895;28;21001;-77
2022/04/17 09:22:09;;;;;;;7.60;2.83;;;16.00;49.00;;;;;;5066060;28;20481;-76
2022/04/17 09:24:39;;;;;;;2.17;1.73;;;15.90;52.10;;;;;;5069911;28;20478;-78
2022/04/17 09:27:07;;;;;;;3.30;2.10;;;16.00;53.10;;;;;;5065012;28;20481;-81
2022/04/17 09:29:37;;;;;;;4.50;2.20;;;16.20;50.30;;;;;;5068359;28;20555;-77
2022/04/17 09:32:06;;;;;;;2.70;2.50;;;16.10;49.50;;;;;;5069062;28;20558;-78
2022/04/17 09:34:43;;;;;;;2.70;2.50;;;16.40;50.90;;;;;;5069672;28;21012;-77
2022/04/17 09:37:15;;;;;;;4.30;2.17;;;16.50;50.30;;;;;;5069076;28;20488;-74
2022/04/17 09:39:42;;;;;;;2.80;2.50;;;16.70;52.40;;;;;;5070878;28;20484;-78
2022/04/17 09:42:09;;;;;;;2.87;2.00;;;17.00;51.70;;;;;;5069397;28;20466;-79
2022/04/17 09:44:38;;;;;;;2.20;1.67;;;17.10;52.00;;;;;;5072461;28;20933;-83
2022/04/17 09:47:09;;;;;;;2.70;2.20;;;16.60;46.90;;;;;;5064696;28;20471;-80
2022/04/17 09:50:08;;;;;;;2.50;2.10;;;17.10;51.20;;;;;;5060438;28;20603;-75
2022/04/17 09:52:41;;;;;;;2.20;1.70;;;17.30;51.10;;;;;;5025040;28;21682;-77
2022/04/17 09:55:09;;;;;;;2.17;1.80;;;17.40;53.20;;;;;;5059801;28;20481;-75
2022/04/17 09:57:37;;;;;;;3.00;2.70;;;17.40;52.80;;;;;;5064833;28;20514;-76
2022/04/17 10:00:09;;;;;;;3.50;2.50;;;17.60;51.50;;;;;;5059892;28;20490;-73
2022/04/17 10:02:38;;;;;;;2.50;2.23;;;17.80;50.40;;;;;;5051288;28;20486;-75
2022/04/17 10:05:07;;;;;;;4.10;2.30;;;18.00;51.10;;;;;;5071623;28;21209;-75
2022/04/17 10:07:35;;;;;;;3.83;2.40;;;18.00;50.30;;;;;;5067131;28;20478;-73
2022/04/17 10:10:02;;;;;;;2.80;2.50;;;18.10;51.60;;;;;;5063445;28;20480;-77
2022/04/17 10:12:29;;;;;;;8.13;2.77;;;17.90;50.00;;;;;;5067618;28;20475;-77
2022/04/17 10:15:01;;;;;;;3.53;3.23;;;18.00;51.00;;;;;;5065499;28;20751;-72
2022/04/17 10:17:29;;;;;;;4.97;2.63;;;18.20;51.20;;;;;;5065038;28;20471;-76
2022/04/17 10:20:03;;;;;;;2.23;2.03;;;18.40;51.50;;;;;;5060962;28;20898;-74
2022/04/17 10:22:34;;;;;;;4.53;2.30;;;18.60;53.40;;;;;;5053486;28;20896;-75
2022/04/17 10:25:02;;;;;;;3.50;2.57;;;18.60;50.90;;;;;;5070146;28;20483;-76
2022/04/17 10:27:33;;;;;;;2.53;1.90;;;18.70;49.70;;;;;;5067590;28;20481;-75
2022/04/17 10:30:05;;;;;;;3.90;1.80;;;18.60;48.90;;;;;;5057398;28;20467;-76
2022/04/17 10:32:50;;;;;;;3.43;2.10;;;18.30;46.90;;;;;;5066924;28;20477;-76
2022/04/17 10:35:39;;;;;;;5.73;2.40;;;18.00;47.50;;;;;;5068144;28;20474;-79
2022/04/17 10:38:23;;;;;;;3.00;1.77;;;18.00;48.60;;;;;;5067822;28;20485;-76
2022/04/17 10:40:53;;;;;;;2.57;2.17;;;17.90;49.30;;;;;;5062830;28;20512;-75
2022/04/17 10:43:21;;;;;;;2.73;1.80;;;18.00;49.70;;;;;;5066742;28;20485;-77
2022/04/17 10:46:10;;;;;;;5.60;2.00;;;18.10;48.30;;;;;;5066144;28;20502;-79
2022/04/17 10:48:44;;;;;;;2.53;2.07;;;18.10;48.20;;;;;;5056781;28;20470;-80
2022/04/17 10:51:22;;;;;;;3.03;1.87;;;18.20;50.10;;;;;;5059014;28;20842;-76
2022/04/17 10:53:59;;;;;;;2.40;1.80;;;18.10;48.00;;;;;;5060604;28;20477;-77
2022/04/17 10:56:26;;;;;;;2.70;1.83;;;18.30;50.60;;;;;;5073984;28;20890;-77
2022/04/17 10:58:55;;;;;;;3.70;2.00;;;18.30;50.10;;;;;;5064579;28;20481;-81
2022/04/17 11:01:51;;;;;;;2.50;1.30;;;18.40;49.50;;;;;;5062538;28;20470;-81
2022/04/17 11:04:18;;;;;;;2.00;1.50;;;18.30;47.80;;;;;;5067939;28;20473;-76
2022/04/17 11:06:47;;;;;;;3.33;1.60;;;18.30;48.30;;;;;;5064037;28;20490;-77
2022/04/17 11:09:15;;;;;;;2.20;1.63;;;18.30;48.60;;;;;;5066988;28;20478;-78
2022/04/17 11:11:46;;;;;;;2.50;1.73;;;18.40;49.20;;;;;;5062267;28;20481;-79
2022/04/17 11:14:16;;;;;;;3.80;2.07;;;18.40;49.70;;;;;;5067193;28;21075;-80
2022/04/17 11:16:50;;;;;;;3.60;1.63;;;18.30;45.60;;;;;;5063442;28;20831;-77
2022/04/17 11:19:19;;;;;;;4.80;1.97;;;18.30;47.30;;;;;;5064558;28;20481;-77
2022/04/17 11:21:50;;;;;;;2.47;1.60;;;18.10;45.50;;;;;;5055540;28;20482;-79
2022/04/17 11:24:19;;;;;;;1.90;1.33;;;18.20;47.20;;;;;;5067652;28;20570;-78
2022/04/17 11:27:09;;;;;;;2.80;1.53;;;18.30;47.30;;;;;;5068368;28;20496;-78
2022/04/17 11:29:37;;;;;;;1.80;1.20;;;18.10;43.90;;;;;;5054259;28;20546;-83
2022/04/17 11:32:39;;;;;;;1.90;1.33;;;18.40;45.80;;;;;;5069275;28;20898;-75
2022/04/17 11:35:08;;;;;;;2.80;1.97;;;18.20;42.40;;;;;;5066986;28;20465;-80
2022/04/17 11:37:36;;;;;;;3.23;1.73;;;18.60;46.30;;;;;;5070478;28;20978;-81
2022/04/17 11:40:10;;;;;;;4.10;2.00;;;18.70;47.40;;;;;;5066456;28;20473;-78
2022/04/17 11:42:41;;;;;;;3.20;1.20;;;18.90;46.70;;;;;;5062380;28;20568;-78
2022/04/17 11:45:10;;;;;;;2.37;1.60;;;18.70;43.10;;;;;;5071050;28;20822;-79
2022/04/17 11:47:40;;;;;;;3.67;2.10;;;18.00;42.00;;;;;;5069933;28;20544;-76
2022/04/17 11:50:10;;;;;;;4.43;1.90;;;18.30;45.00;;;;;;5064355;28;20473;-80
2022/04/17 11:52:39;;;;;;;1.90;1.30;;;18.30;44.50;;;;;;5073395;28;20561;-76
2022/04/17 11:55:07;;;;;;;3.00;1.53;;;18.30;44.00;;;;;;5063423;28;20478;-79
2022/04/17 11:57:36;;;;;;;1.90;1.10;;;18.50;45.30;;;;;;5073031;28;20481;-81
2022/04/17 12:00:02;;;;;;;3.63;1.63;;;18.20;43.40;;;;;;5058920;28;20477;-77
2022/04/17 12:02:30;;;;;;;2.30;1.80;;;18.20;45.80;;;;;;5081863;28;20481;-74
2022/04/17 12:05:05;;;;;;;2.20;1.10;;;18.60;48.30;;;;;;5070809;28;20486;-77
2022/04/17 12:07:31;;;;;;;2.37;2.10;;;18.80;46.90;;;;;;5072364;28;20518;-77
2022/04/17 12:10:07;;;;;;;5.90;1.40;;;18.90;45.90;;;;;;5060653;28;20478;-81
2022/04/17 12:12:35;;;;;;;9.43;2.00;;;19.20;46.80;;;;;;5073932;28;20485;-77
2022/04/17 12:15:04;;;;;;;2.20;1.43;;;19.30;46.20;;;;;;5054641;28;20481;-77
2022/04/17 12:17:32;;;;;;;2.90;1.60;;;19.20;45.50;;;;;;5071243;28;20470;-76
2022/04/17 12:20:00;;;;;;;3.53;2.23;;;19.20;45.30;;;;;;5065230;28;22846;-84
2022/04/17 12:22:28;;;;;;;2.80;1.33;;;19.30;45.80;;;;;;5073357;28;20474;-80
2022/04/17 12:24:55;;;;;;;2.40;1.00;;;19.20;43.60;;;;;;5071611;28;20504;-78
2022/04/17 12:27:23;;;;;;;3.23;1.50;;;19.00;41.90;;;;;;5073406;28;20488;-80
2022/04/17 12:29:52;;;;;;;2.10;0.97;;;19.30;43.50;;;;;;5066740;28;20840;-80
2022/04/17 12:32:22;;;;;;;2.00;1.50;;;19.20;40.50;;;;;;5069917;28;20479;-80
2022/04/17 12:34:59;;;;;;;2.10;1.50;;;19.00;39.70;;;;;;5063449;28;20497;-77
2022/04/17 12:37:29;;;;;;;1.80;1.03;;;19.20;41.70;;;;;;5079693;28;21496;-79
2022/04/17 12:40:08;;;;;;;1.87;0.93;;;19.00;41.50;;;;;;5065623;28;20563;-79
2022/04/17 12:42:37;;;;;;;2.47;1.30;;;19.30;42.80;;;;;;5073360;28;20567;-76
2022/04/17 12:45:09;;;;;;;2.10;1.90;;;19.50;42.00;;;;;;5071560;28;20480;-75
2022/04/17 12:47:38;;;;;;;2.30;1.10;;;19.60;43.00;;;;;;5070959;28;20562;-76
2022/04/17 12:50:09;;;;;;;3.50;1.40;;;19.40;40.50;;;;;;5064233;28;20487;-79
2022/04/17 12:52:36;;;;;;;3.07;1.23;;;19.70;45.00;;;;;;5072860;28;20478;-80
2022/04/17 12:55:12;;;;;;;5.20;1.20;;;19.70;44.20;;;;;;5075366;28;21210;-76
2022/04/17 12:57:43;;;;;;;2.03;0.97;;;19.50;40.50;;;;;;5052708;28;20496;-85
2022/04/17 13:00:16;;;;;;;5.93;1.00;;;19.90;44.20;;;;;;5076118;28;20588;-78
2022/04/17 13:02:43;;;;;;;5.90;1.50;;;19.60;42.70;;;;;;5061185;28;20489;-77
2022/04/17 13:05:21;;;;;;;3.03;1.00;;;19.40;40.50;;;;;;5070863;28;20477;-82
2022/04/17 13:07:47;;;;;;;3.90;2.93;;;19.50;40.70;;;;;;5062245;28;20475;-80
2022/04/17 13:10:14;;;;;;;2.77;1.37;;;19.60;41.30;;;;;;5065509;28;20481;-79
2022/04/17 13:12:46;;;;;;;2.10;1.10;;;19.60;41.00;;;;;;5074186;28;20482;-76